JJP41 RJAA-RPLL
Flight info
| Callsign | JJP41 |
|---|---|
| Flight time | N/A |
| Altitude | 36000 |
| Route | SAMUS T844 BUBDO A590 GURAG/N0454F380 A590 MUPOB Z153 POLIO POLIO3R |
| Aircraft | A320/M-SDE3FGHIRWY/LB1 |
Departure
| Time | N/A |
|---|---|
| Airport | Narita International Airport (RJAA) |
Arrival
| Time | 2026-05-03 20:19 |
|---|---|
| Airport | Ninoy Aquino International Airport (RPLL) |
| Time | Latitude | Longitude | Altitude | Speed | Heading |
|---|---|---|---|---|---|
| 2026-05-03 20:15 | 14.41523 | 120.82366 | 4289 ft | 235 kts | 100° |
| 2026-05-03 20:15 | 14.41408 | 120.84058 | 3788 ft | 239 kts | 82° |
| 2026-05-03 20:15 | 14.41844 | 120.85713 | 3248 ft | 242 kts | 64° |
| 2026-05-03 20:15 | 14.42656 | 120.87201 | 2779 ft | 231 kts | 60° |
| 2026-05-03 20:16 | 14.43429 | 120.88585 | 2462 ft | 215 kts | 60° |
| 2026-05-03 20:16 | 14.44148 | 120.89877 | 2205 ft | 200 kts | 59° |
| 2026-05-03 20:16 | 14.44812 | 120.91070 | 1950 ft | 184 kts | 59° |
| 2026-05-03 20:16 | 14.45408 | 120.92141 | 1730 ft | 166 kts | 59° |
| 2026-05-03 20:17 | 14.45958 | 120.93129 | 1518 ft | 153 kts | 60° |
| 2026-05-03 20:17 | 14.46486 | 120.94079 | 1364 ft | 152 kts | 59° |
| 2026-05-03 20:17 | 14.47014 | 120.95027 | 1161 ft | 151 kts | 60° |
| 2026-05-03 20:17 | 14.47539 | 120.95973 | 962 ft | 152 kts | 60° |
| 2026-05-03 20:18 | 14.48048 | 120.96887 | 774 ft | 142 kts | 60° |
| 2026-05-03 20:18 | 14.48534 | 120.97761 | 594 ft | 139 kts | 61° |
| 2026-05-03 20:18 | 14.49008 | 120.98615 | 406 ft | 138 kts | 61° |
| 2026-05-03 20:18 | 14.49483 | 120.99468 | 220 ft | 136 kts | 61° |
| 2026-05-03 20:19 | 14.49954 | 121.00307 | 105 ft | 131 kts | 61° |
| 2026-05-03 20:19 | 14.50351 | 121.01031 | 65 ft | 94 kts | 59° |
| 2026-05-03 20:19 | 14.50616 | 121.01501 | 66 ft | 69 kts | 60° |
| 2026-05-03 20:19 | 14.50830 | 121.01894 | 65 ft | 37 kts | 60° |
| 2026-05-03 20:20 | 14.50946 | 121.01995 | 63 ft | 11 kts | 352° |
| 2026-05-03 20:20 | 14.50975 | 121.01981 | 66 ft | 6 kts | 328° |
| 2026-05-03 20:20 | 14.51013 | 121.01943 | 63 ft | 10 kts | 312° |
| 2026-05-03 20:20 | 14.51075 | 121.01918 | 69 ft | 12 kts | 30° |
| 2026-05-03 20:21 | 14.51151 | 121.01904 | 64 ft | 14 kts | 317° |
| 2026-05-03 20:21 | 14.51227 | 121.01826 | 63 ft | 17 kts | 315° |
| 2026-05-03 20:21 | 14.51317 | 121.01731 | 68 ft | 20 kts | 314° |
| 2026-05-03 20:21 | 14.51423 | 121.01622 | 66 ft | 23 kts | 315° |
| 2026-05-03 20:22 | 14.51513 | 121.01529 | 66 ft | 11 kts | 315° |
| 2026-05-03 20:22 | 14.51568 | 121.01472 | 65 ft | 8 kts | 315° |
| 2026-05-03 20:22 | 14.51601 | 121.01457 | 60 ft | 4 kts | 21° |
| 2026-05-03 20:22 | 14.51628 | 121.01481 | 64 ft | 7 kts | 45° |
| 2026-05-03 20:23 | 14.51641 | 121.01495 | 59 ft | 3 kts | 47° |
| 2026-05-03 20:23 | 14.51659 | 121.01513 | 65 ft | 3 kts | 44° |
| 2026-05-03 20:23 | 14.51663 | 121.01517 | 59 ft | 0 kts | 44° |